Time;durP1;ratioP1;P1;durP2;ratioP2;P2;SDS_P1;SDS_P2;PMS_P1;PMS_P2;Temp;Humidity;BMP_temperature;BMP_pressure;BME280_temperature;BME280_humidity;BME280_pressure;Samples;Min_cycle;Max_cycle;Signal;HPM_P1;HPM_P2
2023/03/15 00:01:45;;;;;;;8.85;4.43;;;;;;;;;;4988788;28;20050;-65
2023/03/15 00:04:12;;;;;;;10.60;4.82;;;;;;;;;;4988235;28;20345;-65
2023/03/15 00:06:38;;;;;;;10.80;4.70;;;;;;;;;;4988865;28;20046;-65
2023/03/15 00:09:05;;;;;;;7.68;3.88;;;;;;;;;;4987965;28;20525;-65
2023/03/15 00:11:31;;;;;;;10.75;4.50;;;;;;;;;;4988242;28;20065;-65
2023/03/15 00:13:58;;;;;;;13.93;4.25;;;;;;;;;;4987924;28;20057;-64
2023/03/15 00:16:26;;;;;;;6.85;4.40;;;;;;;;;;4988344;28;20047;-64
2023/03/15 00:18:53;;;;;;;10.52;5.30;;;;;;;;;;4987712;28;20054;-65
2023/03/15 00:21:20;;;;;;;10.13;4.80;;;;;;;;;;4988452;28;20081;-64
2023/03/15 00:23:47;;;;;;;8.95;4.30;;;;;;;;;;4988113;28;20561;-64
2023/03/15 00:26:13;;;;;;;9.82;3.92;;;;;;;;;;4988653;28;20053;-64
2023/03/15 00:28:40;;;;;;;10.52;3.75;;;;;;;;;;4987836;28;20334;-65
2023/03/15 00:31:11;;;;;;;9.18;3.60;;;;;;;;;;4987975;28;20046;-65
2023/03/15 00:33:40;;;;;;;11.45;3.88;;;;;;;;;;4988018;28;20415;-65
2023/03/15 00:36:08;;;;;;;8.82;4.10;;;;;;;;;;4987522;28;20525;-64
2023/03/15 00:38:36;;;;;;;8.68;3.53;;;;;;;;;;4987903;28;20046;-64
2023/03/15 00:41:06;;;;;;;9.70;4.25;;;;;;;;;;4987594;28;20047;-64
2023/03/15 00:43:33;;;;;;;12.40;4.10;;;;;;;;;;4987880;28;20312;-64
2023/03/15 00:46:00;;;;;;;8.60;4.07;;;;;;;;;;4987326;28;20054;-65
2023/03/15 00:48:27;;;;;;;10.98;3.70;;;;;;;;;;4987237;28;20048;-64
2023/03/15 00:51:06;;;;;;;11.32;3.80;;;;;;;;;;4988028;28;20503;-64
2023/03/15 00:53:34;;;;;;;11.00;3.55;;;;;;;;;;4987828;28;20504;-65
2023/03/15 00:56:04;;;;;;;10.68;4.53;;;;;;;;;;4987344;28;20053;-64
2023/03/15 00:58:31;;;;;;;15.93;4.20;;;;;;;;;;4987674;28;20067;-64
2023/03/15 01:00:58;;;;;;;12.30;5.03;;;;;;;;;;4987323;28;20042;-65
2023/03/15 01:03:24;;;;;;;13.98;4.35;;;;;;;;;;4987466;28;20057;-65
2023/03/15 01:05:51;;;;;;;10.27;4.55;;;;;;;;;;4987161;28;20133;-65
2023/03/15 01:08:19;;;;;;;11.70;4.32;;;;;;;;;;4987736;28;20419;-65
2023/03/15 01:10:45;;;;;;;7.95;3.88;;;;;;;;;;4988105;28;20046;-64
2023/03/15 01:13:12;;;;;;;9.90;3.85;;;;;;;;;;4987995;28;20453;-65
2023/03/15 01:15:39;;;;;;;7.63;3.88;;;;;;;;;;4987227;28;20054;-64
2023/03/15 01:18:05;;;;;;;12.23;3.90;;;;;;;;;;4987543;28;20138;-64
2023/03/15 01:20:32;;;;;;;6.53;3.67;;;;;;;;;;4987617;28;20051;-64
2023/03/15 01:22:58;;;;;;;8.80;3.53;;;;;;;;;;4989217;28;20046;-65
2023/03/15 01:25:26;;;;;;;6.93;3.70;;;;;;;;;;4990805;28;20046;-65
2023/03/15 01:27:53;;;;;;;7.07;3.25;;;;;;;;;;4990317;28;20430;-64
2023/03/15 01:30:19;;;;;;;5.85;3.30;;;;;;;;;;4990541;28;20053;-65
2023/03/15 01:32:46;;;;;;;8.10;3.53;;;;;;;;;;4990628;28;20051;-65
2023/03/15 01:35:12;;;;;;;6.88;3.13;;;;;;;;;;4990876;28;20066;-64
2023/03/15 01:37:39;;;;;;;6.07;3.47;;;;;;;;;;4990235;28;20047;-65
2023/03/15 01:40:08;;;;;;;8.48;3.35;;;;;;;;;;4991016;28;20047;-64
2023/03/15 01:42:51;;;;;;;6.72;3.65;;;;;;;;;;4990301;28;20051;-65
2023/03/15 01:45:56;;;;;;;8.93;4.22;;;;;;;;;;4990865;28;20042;-65
2023/03/15 01:48:27;;;;;;;8.43;3.97;;;;;;;;;;4989664;28;20069;-65
2023/03/15 01:50:55;;;;;;;7.20;3.28;;;;;;;;;;4990582;28;20046;-65
2023/03/15 01:53:22;;;;;;;10.82;3.92;;;;;;;;;;4989976;28;20046;-65
2023/03/15 01:55:51;;;;;;;12.95;4.30;;;;;;;;;;4990717;28;20061;-64
2023/03/15 01:58:20;;;;;;;10.77;4.05;;;;;;;;;;4989919;28;20072;-65
2023/03/15 02:00:47;;;;;;;15.45;3.78;;;;;;;;;;4990751;28;20048;-65
2023/03/15 02:03:18;;;;;;;6.95;3.28;;;;;;;;;;4990008;28;20076;-64
2023/03/15 02:05:48;;;;;;;9.07;3.92;;;;;;;;;;4990288;28;20057;-65
2023/03/15 02:08:17;;;;;;;6.30;3.70;;;;;;;;;;4989845;28;20411;-65
2023/03/15 02:10:47;;;;;;;7.30;3.50;;;;;;;;;;4990585;28;20069;-65
2023/03/15 02:13:21;;;;;;;7.68;3.75;;;;;;;;;;4989739;28;20048;-65
2023/03/15 02:15:49;;;;;;;9.32;3.80;;;;;;;;;;4990572;28;20574;-64
2023/03/15 02:18:16;;;;;;;9.10;4.00;;;;;;;;;;4989412;28;20057;-65
2023/03/15 02:20:48;;;;;;;12.77;4.15;;;;;;;;;;4990222;28;20060;-65
2023/03/15 02:23:17;;;;;;;8.30;3.78;;;;;;;;;;4989977;28;20072;-65
2023/03/15 02:25:51;;;;;;;8.45;3.78;;;;;;;;;;4989794;28;20046;-64
2023/03/15 02:28:20;;;;;;;8.50;3.38;;;;;;;;;;4989785;28;20488;-65
2023/03/15 02:30:47;;;;;;;7.40;3.83;;;;;;;;;;4989771;28;20135;-65
2023/03/15 02:33:18;;;;;;;6.50;3.38;;;;;;;;;;4989658;28;20050;-64
2023/03/15 02:35:45;;;;;;;10.70;4.03;;;;;;;;;;4989600;28;20069;-65
2023/03/15 02:38:11;;;;;;;9.23;4.32;;;;;;;;;;4989588;28;20514;-64
2023/03/15 02:40:38;;;;;;;11.98;4.53;;;;;;;;;;4989515;28;20492;-65
2023/03/15 02:43:08;;;;;;;12.60;5.45;;;;;;;;;;4989781;28;20066;-65
2023/03/15 02:45:38;;;;;;;9.93;4.63;;;;;;;;;;4989851;28;20073;-64
2023/03/15 02:48:06;;;;;;;10.90;4.82;;;;;;;;;;4989580;28;20046;-65
2023/03/15 02:50:33;;;;;;;10.02;4.75;;;;;;;;;;4989327;28;20139;-64
2023/03/15 02:53:01;;;;;;;7.70;4.40;;;;;;;;;;4989787;28;20046;-64
2023/03/15 02:55:28;;;;;;;10.95;4.60;;;;;;;;;;4989584;28;20061;-65
2023/03/15 02:57:55;;;;;;;10.55;4.60;;;;;;;;;;4989340;28;20052;-64
2023/03/15 03:00:21;;;;;;;12.10;5.18;;;;;;;;;;4988994;28;20046;-64
2023/03/15 03:02:49;;;;;;;9.57;4.70;;;;;;;;;;4989484;28;20057;-66
2023/03/15 03:05:17;;;;;;;12.65;5.72;;;;;;;;;;4989228;28;20477;-64
2023/03/15 03:07:44;;;;;;;10.38;4.80;;;;;;;;;;4989161;28;20050;-65
2023/03/15 03:10:14;;;;;;;8.05;4.40;;;;;;;;;;4988808;28;20423;-65
2023/03/15 03:12:41;;;;;;;11.88;5.05;;;;;;;;;;4989449;28;20050;-65
2023/03/15 03:15:09;;;;;;;15.00;6.80;;;;;;;;;;4988995;28;20054;-64
2023/03/15 03:17:36;;;;;;;11.98;5.32;;;;;;;;;;4988871;28;20050;-64
2023/03/15 03:20:06;;;;;;;15.82;5.57;;;;;;;;;;4989270;28;20112;-64
2023/03/15 03:22:33;;;;;;;15.75;5.28;;;;;;;;;;4989065;28;20066;-64
2023/03/15 03:25:00;;;;;;;13.73;6.28;;;;;;;;;;4989478;28;20502;-65
2023/03/15 03:27:26;;;;;;;16.25;7.07;;;;;;;;;;4988879;28;20526;-64
2023/03/15 03:29:53;;;;;;;13.20;6.20;;;;;;;;;;4989215;28;20057;-65
2023/03/15 03:32:19;;;;;;;15.95;6.53;;;;;;;;;;4988823;28;20465;-65
2023/03/15 03:34:47;;;;;;;14.05;5.63;;;;;;;;;;4988862;28;20057;-63
2023/03/15 03:37:16;;;;;;;13.05;6.18;;;;;;;;;;4988148;28;20054;-64
2023/03/15 03:39:43;;;;;;;14.88;6.93;;;;;;;;;;4988840;28;20062;-65
2023/03/15 03:42:09;;;;;;;14.50;7.25;;;;;;;;;;4988877;28;20048;-65
2023/03/15 03:44:37;;;;;;;15.13;7.00;;;;;;;;;;4987840;28;20454;-64
2023/03/15 03:47:03;;;;;;;14.93;7.55;;;;;;;;;;4988367;28;20057;-64
2023/03/15 03:49:30;;;;;;;14.93;6.95;;;;;;;;;;4988854;28;20140;-65
2023/03/15 03:51:56;;;;;;;17.90;7.47;;;;;;;;;;4988364;28;20042;-64
2023/03/15 03:54:24;;;;;;;19.17;7.20;;;;;;;;;;4988495;28;20072;-64
2023/03/15 03:56:51;;;;;;;16.48;7.03;;;;;;;;;;4988483;28;20416;-64
2023/03/15 03:59:17;;;;;;;15.48;7.07;;;;;;;;;;4988235;28;20475;-65
2023/03/15 04:01:44;;;;;;;17.73;7.68;;;;;;;;;;4988497;28;20411;-64
2023/03/15 04:04:12;;;;;;;17.33;8.15;;;;;;;;;;4988225;28;20492;-64
2023/03/15 04:06:44;;;;;;;14.52;7.78;;;;;;;;;;4988406;28;20115;-65
2023/03/15 04:09:11;;;;;;;17.48;6.95;;;;;;;;;;4988207;28;20434;-64
2023/03/15 04:11:41;;;;;;;25.15;7.85;;;;;;;;;;4988603;28;20397;-65
2023/03/15 04:14:08;;;;;;;13.75;6.85;;;;;;;;;;5010065;23;20046;-66
2023/03/15 04:16:35;;;;;;;21.38;7.35;;;;;;;;;;5008167;28;20107;-66
2023/03/15 04:19:02;;;;;;;19.40;7.30;;;;;;;;;;5007113;28;20403;-67
2023/03/15 04:21:30;;;;;;;18.85;7.63;;;;;;;;;;5008057;28;20459;-66
2023/03/15 04:23:58;;;;;;;19.63;7.53;;;;;;;;;;5007563;28;20048;-66
2023/03/15 04:26:25;;;;;;;19.40;7.55;;;;;;;;;;5007975;28;20103;-66
2023/03/15 04:28:53;;;;;;;14.70;7.10;;;;;;;;;;5007489;28;20488;-67
2023/03/15 04:31:20;;;;;;;20.17;8.05;;;;;;;;;;5007935;28;20050;-66
2023/03/15 04:33:47;;;;;;;15.50;7.45;;;;;;;;;;5007584;28;20053;-67
2023/03/15 04:36:17;;;;;;;17.98;7.68;;;;;;;;;;5007791;28;20053;-66
2023/03/15 04:38:45;;;;;;;12.15;6.97;;;;;;;;;;5007521;28;20422;-66
2023/03/15 04:41:12;;;;;;;19.45;6.63;;;;;;;;;;5007661;28;20548;-65
2023/03/15 04:43:38;;;;;;;16.40;6.88;;;;;;;;;;5007554;28;20411;-66
2023/03/15 04:46:07;;;;;;;16.77;7.22;;;;;;;;;;5006836;28;20487;-66
2023/03/15 04:48:34;;;;;;;13.57;6.72;;;;;;;;;;5007439;28;20083;-66
2023/03/15 04:51:00;;;;;;;18.27;7.70;;;;;;;;;;5007342;28;20495;-64
2023/03/15 04:53:27;;;;;;;18.33;6.35;;;;;;;;;;5007315;28;20470;-67
2023/03/15 04:55:54;;;;;;;13.85;6.57;;;;;;;;;;5007718;28;20537;-67
2023/03/15 04:58:20;;;;;;;15.40;6.53;;;;;;;;;;5010276;28;20046;-67
2023/03/15 05:00:47;;;;;;;15.10;6.50;;;;;;;;;;5010526;28;20057;-66
2023/03/15 05:03:15;;;;;;;14.45;6.10;;;;;;;;;;5010856;28;20053;-67
2023/03/15 05:05:41;;;;;;;13.48;6.32;;;;;;;;;;5010734;28;20098;-66
2023/03/15 05:08:08;;;;;;;15.20;5.82;;;;;;;;;;5010577;28;20076;-66
2023/03/15 05:10:34;;;;;;;13.15;6.13;;;;;;;;;;5010237;28;20046;-66
2023/03/15 05:13:01;;;;;;;12.43;6.10;;;;;;;;;;5010253;28;20497;-66
2023/03/15 05:15:27;;;;;;;12.32;5.75;;;;;;;;;;5010613;28;20065;-66
2023/03/15 05:17:54;;;;;;;10.80;5.53;;;;;;;;;;5010785;28;20041;-66
2023/03/15 05:20:24;;;;;;;11.57;5.40;;;;;;;;;;5010612;28;20046;-66
2023/03/15 05:22:52;;;;;;;13.75;5.57;;;;;;;;;;5010384;28;20133;-66
2023/03/15 05:25:18;;;;;;;13.18;5.00;;;;;;;;;;5010274;28;20050;-66
2023/03/15 05:27:46;;;;;;;10.15;4.70;;;;;;;;;;5009488;28;20042;-66
2023/03/15 05:30:14;;;;;;;11.65;5.32;;;;;;;;;;5010331;28;20049;-66
2023/03/15 05:32:43;;;;;;;11.40;4.78;;;;;;;;;;5010400;28;20111;-67
2023/03/15 05:35:11;;;;;;;10.35;4.57;;;;;;;;;;5010537;28;20517;-66
2023/03/15 05:37:39;;;;;;;8.55;4.55;;;;;;;;;;5010027;28;20056;-67
2023/03/15 05:40:07;;;;;;;13.20;5.22;;;;;;;;;;5010383;28;20074;-67
2023/03/15 05:42:34;;;;;;;19.35;4.60;;;;;;;;;;5010252;28;20457;-66
2023/03/15 05:45:01;;;;;;;10.43;4.28;;;;;;;;;;5010388;28;20128;-66
2023/03/15 05:47:27;;;;;;;8.88;3.92;;;;;;;;;;5009479;28;20046;-65
2023/03/15 05:49:54;;;;;;;9.85;4.00;;;;;;;;;;5010450;28;20510;-66
2023/03/15 05:52:20;;;;;;;8.43;3.70;;;;;;;;;;5010157;28;20472;-65
2023/03/15 05:54:48;;;;;;;9.20;3.95;;;;;;;;;;5009711;28;20049;-65
2023/03/15 05:57:15;;;;;;;7.35;3.60;;;;;;;;;;5009552;28;20050;-66
2023/03/15 05:59:41;;;;;;;9.65;4.22;;;;;;;;;;5009829;28;20041;-66
2023/03/15 06:02:08;;;;;;;10.65;4.10;;;;;;;;;;5009739;28;20058;-66
2023/03/15 06:04:35;;;;;;;14.40;5.53;;;;;;;;;;5009759;28;20049;-66
2023/03/15 06:07:01;;;;;;;13.55;5.93;;;;;;;;;;5009674;28;20050;-67
2023/03/15 06:09:28;;;;;;;8.98;4.18;;;;;;;;;;5008549;28;20167;-65
2023/03/15 06:11:57;;;;;;;8.50;4.07;;;;;;;;;;5009936;28;20356;-66
2023/03/15 06:14:24;;;;;;;12.95;4.47;;;;;;;;;;5009680;28;20046;-66
2023/03/15 06:16:51;;;;;;;11.63;4.43;;;;;;;;;;5009957;28;20407;-67
2023/03/15 06:19:17;;;;;;;9.98;4.25;;;;;;;;;;5009152;28;20521;-66
2023/03/15 06:21:44;;;;;;;8.20;4.43;;;;;;;;;;5009679;28;20045;-66
2023/03/15 06:24:11;;;;;;;12.45;4.50;;;;;;;;;;5009700;28;20139;-66
2023/03/15 06:26:37;;;;;;;8.38;4.95;;;;;;;;;;5009442;28;20491;-66
2023/03/15 06:29:06;;;;;;;12.18;5.30;;;;;;;;;;5008969;28;20056;-66
2023/03/15 06:31:32;;;;;;;11.40;5.35;;;;;;;;;;5009616;28;20042;-66
2023/03/15 06:33:59;;;;;;;9.10;4.85;;;;;;;;;;5008782;28;20045;-65
2023/03/15 06:36:25;;;;;;;9.90;4.63;;;;;;;;;;5009179;28;20053;-67
2023/03/15 06:38:53;;;;;;;8.70;5.22;;;;;;;;;;5009170;28;20050;-67
2023/03/15 06:41:20;;;;;;;10.20;4.65;;;;;;;;;;5009639;28;20050;-66
2023/03/15 06:43:46;;;;;;;11.45;5.40;;;;;;;;;;5009454;28;20056;-66
2023/03/15 06:46:14;;;;;;;10.73;5.90;;;;;;;;;;5009551;28;20530;-66
2023/03/15 06:48:41;;;;;;;12.27;5.00;;;;;;;;;;5009026;28;20050;-66
2023/03/15 06:51:08;;;;;;;10.27;4.70;;;;;;;;;;5008682;28;20056;-66
2023/03/15 06:53:35;;;;;;;11.98;5.03;;;;;;;;;;5009084;28;20046;-66
2023/03/15 06:56:01;;;;;;;14.35;6.28;;;;;;;;;;5008786;28;20054;-66
2023/03/15 06:58:28;;;;;;;12.80;5.55;;;;;;;;;;5008906;28;20056;-66
2023/03/15 07:00:54;;;;;;;10.57;5.22;;;;;;;;;;5008986;28;20042;-67
2023/03/15 07:03:22;;;;;;;9.88;5.18;;;;;;;;;;5008947;28;20054;-66
2023/03/15 07:05:51;;;;;;;14.48;6.15;;;;;;;;;;5008436;28;20137;-64
2023/03/15 07:08:18;;;;;;;10.52;5.43;;;;;;;;;;5008731;28;20065;-66
2023/03/15 07:10:45;;;;;;;12.60;5.55;;;;;;;;;;5008896;28;20053;-66
2023/03/15 07:13:12;;;;;;;10.68;5.40;;;;;;;;;;5008636;28;20057;-67
2023/03/15 07:15:39;;;;;;;15.82;6.22;;;;;;;;;;5009074;28;20524;-66
2023/03/15 07:18:06;;;;;;;13.10;5.50;;;;;;;;;;5008292;28;20054;-67
2023/03/15 07:20:34;;;;;;;12.32;5.82;;;;;;;;;;5007128;28;20046;-66
2023/03/15 07:23:00;;;;;;;12.10;6.13;;;;;;;;;;5008747;28;20507;-66
2023/03/15 07:25:28;;;;;;;12.63;6.35;;;;;;;;;;5008528;28;20077;-66
2023/03/15 07:27:54;;;;;;;15.85;8.73;;;;;;;;;;5008396;28;20042;-65
2023/03/15 07:30:21;;;;;;;22.23;10.30;;;;;;;;;;5008643;28;20049;-67
2023/03/15 07:32:48;;;;;;;12.65;7.45;;;;;;;;;;5008186;28;20072;-66
2023/03/15 07:35:16;;;;;;;12.10;6.50;;;;;;;;;;5008666;28;20042;-66
2023/03/15 07:37:44;;;;;;;15.88;6.78;;;;;;;;;;5008056;28;20122;-66
2023/03/15 07:40:12;;;;;;;12.45;6.78;;;;;;;;;;5008425;28;20046;-67
2023/03/15 07:42:39;;;;;;;10.82;5.82;;;;;;;;;;5007924;28;20089;-66
2023/03/15 07:45:07;;;;;;;11.35;5.90;;;;;;;;;;5008152;28;20049;-66
2023/03/15 07:47:35;;;;;;;10.75;5.70;;;;;;;;;;5008033;28;20503;-66
2023/03/15 07:50:02;;;;;;;12.85;6.03;;;;;;;;;;5008847;28;20046;-67
2023/03/15 07:52:29;;;;;;;10.63;5.40;;;;;;;;;;5008516;28;20572;-66
2023/03/15 07:54:57;;;;;;;11.30;5.53;;;;;;;;;;5008095;28;20042;-66
2023/03/15 07:57:23;;;;;;;10.20;5.90;;;;;;;;;;5007651;28;20046;-66
2023/03/15 07:59:51;;;;;;;10.15;5.93;;;;;;;;;;5007909;28;20046;-66
2023/03/15 08:02:17;;;;;;;11.50;5.40;;;;;;;;;;5007944;28;20045;-66
2023/03/15 08:04:44;;;;;;;10.07;5.47;;;;;;;;;;5056251;28;20040;-66
2023/03/15 08:07:11;;;;;;;14.80;6.05;;;;;;;;;;5110575;28;20382;-66
2023/03/15 08:09:38;;;;;;;11.90;6.07;;;;;;;;;;5110606;28;20412;-66
2023/03/15 08:12:07;;;;;;;11.07;6.15;;;;;;;;;;5111062;27;20514;-67
2023/03/15 08:14:33;;;;;;;13.85;6.40;;;;;;;;;;5110073;28;20051;-65
2023/03/15 08:17:00;;;;;;;13.35;5.68;;;;;;;;;;5110730;28;20511;-67
2023/03/15 08:19:26;;;;;;;13.68;6.32;;;;;;;;;;5086186;28;20047;-66
2023/03/15 08:21:53;;;;;;;11.95;5.93;;;;;;;;;;5035008;28;20054;-66
2023/03/15 08:24:20;;;;;;;12.65;5.72;;;;;;;;;;5007225;28;20506;-66
2023/03/15 08:26:47;;;;;;;14.82;6.18;;;;;;;;;;5007451;28;20165;-66
2023/03/15 08:29:15;;;;;;;10.25;5.70;;;;;;;;;;5007514;28;20053;-66
2023/03/15 08:31:42;;;;;;;13.00;5.75;;;;;;;;;;5006748;28;20076;-66
2023/03/15 08:34:08;;;;;;;9.90;5.97;;;;;;;;;;5007360;28;20082;-66
2023/03/15 08:36:35;;;;;;;10.32;5.40;;;;;;;;;;5007078;28;20049;-65
2023/03/15 08:39:04;;;;;;;10.40;6.00;;;;;;;;;;5007017;28;20050;-66
2023/03/15 08:41:31;;;;;;;10.68;5.93;;;;;;;;;;5006891;28;20133;-66
2023/03/15 08:43:58;;;;;;;12.23;6.25;;;;;;;;;;5007236;28;20042;-66
2023/03/15 08:46:26;;;;;;;17.00;9.40;;;;;;;;;;5007591;28;20046;-66
2023/03/15 08:48:52;;;;;;;9.95;5.85;;;;;;;;;;5033092;28;20059;-66
2023/03/15 08:51:20;;;;;;;8.80;5.80;;;;;;;;;;5108320;28;20044;-67
2023/03/15 08:53:47;;;;;;;9.55;6.00;;;;;;;;;;5109543;28;20074;-67
2023/03/15 08:56:13;;;;;;;11.77;6.78;;;;;;;;;;5110612;28;20048;-66
2023/03/15 08:58:40;;;;;;;10.80;6.45;;;;;;;;;;5109964;28;20044;-65
2023/03/15 09:01:06;;;;;;;10.77;6.05;;;;;;;;;;5110339;28;20055;-66
2023/03/15 09:03:34;;;;;;;15.60;6.43;;;;;;;;;;5110236;28;20044;-66
2023/03/15 09:06:01;;;;;;;9.90;5.78;;;;;;;;;;5047685;28;20037;-66
2023/03/15 09:08:27;;;;;;;8.07;5.35;;;;;;;;;;5005365;28;20426;-67
2023/03/15 09:10:55;;;;;;;8.35;6.00;;;;;;;;;;5028904;28;20293;-68
2023/03/15 09:13:21;;;;;;;10.10;5.68;;;;;;;;;;5007340;28;20049;-68
2023/03/15 09:15:49;;;;;;;9.45;6.00;;;;;;;;;;5002370;28;20047;-67
2023/03/15 09:18:16;;;;;;;8.85;5.72;;;;;;;;;;5006475;28;20049;-68
2023/03/15 09:20:44;;;;;;;9.02;4.78;;;;;;;;;;5006827;28;20050;-69
2023/03/15 09:23:11;;;;;;;11.13;5.60;;;;;;;;;;5005134;28;20042;-68
2023/03/15 09:25:38;;;;;;;7.57;5.13;;;;;;;;;;5006085;28;20484;-69
2023/03/15 09:28:05;;;;;;;7.78;4.80;;;;;;;;;;5005209;28;20073;-67
2023/03/15 09:30:31;;;;;;;7.35;5.05;;;;;;;;;;5006056;28;20050;-68
2023/03/15 09:32:58;;;;;;;8.05;5.68;;;;;;;;;;5003198;28;20045;-68
2023/03/15 09:35:24;;;;;;;7.50;5.20;;;;;;;;;;5004923;28;20534;-66
2023/03/15 09:37:52;;;;;;;8.35;4.82;;;;;;;;;;5005854;28;20050;-66
2023/03/15 09:40:23;;;;;;;8.57;5.22;;;;;;;;;;5005846;28;20519;-66
2023/03/15 09:43:00;;;;;;;7.40;5.45;;;;;;;;;;5006869;28;20050;-66
2023/03/15 09:45:35;;;;;;;10.20;6.10;;;;;;;;;;5009657;28;20234;-66
2023/03/15 09:48:09;;;;;;;7.78;5.57;;;;;;;;;;5013247;28;20657;-67
2023/03/15 09:50:41;;;;;;;7.82;5.15;;;;;;;;;;5011145;28;20471;-67
2023/03/15 09:53:14;;;;;;;7.07;4.75;;;;;;;;;;5009241;28;20132;-64
2023/03/15 09:55:41;;;;;;;;;;;;;;;;;;5010440;28;20133;-63
2023/03/15 09:58:13;;;;;;;11.48;6.28;;;;;;;;;;5009498;28;19922;-66
2023/03/15 10:00:43;;;;;;;34.13;13.32;;;;;;;;;;5018125;28;20129;-66
2023/03/15 10:03:18;;;;;;;30.67;12.05;;;;;;;;;;5008997;28;20091;-68
2023/03/15 10:05:48;;;;;;;7.97;5.43;;;;;;;;;;5008512;28;20042;-66
2023/03/15 10:08:18;;;;;;;22.83;10.63;;;;;;;;;;5008572;28;20111;-64
2023/03/15 10:10:51;;;;;;;7.75;5.13;;;;;;;;;;5008320;28;20052;-66
2023/03/15 10:13:32;;;;;;;9.05;5.60;;;;;;;;;;5021149;22;20041;-65
2023/03/15 10:16:06;;;;;;;7.40;4.68;;;;;;;;;;4989937;28;20455;-67
2023/03/15 10:18:45;;;;;;;6.05;4.53;;;;;;;;;;4983886;28;20136;-64
2023/03/15 10:21:22;;;;;;;6.78;4.50;;;;;;;;;;4978267;28;20129;-65
2023/03/15 10:23:53;;;;;;;5.35;4.13;;;;;;;;;;4983458;28;20050;-65
2023/03/15 10:26:24;;;;;;;6.07;4.28;;;;;;;;;;4984679;28;20054;-65
2023/03/15 10:28:52;;;;;;;6.22;4.15;;;;;;;;;;5057008;28;20059;-66
2023/03/15 10:31:23;;;;;;;7.57;5.00;;;;;;;;;;5014927;28;20531;-66
2023/03/15 10:33:50;;;;;;;5.72;3.80;;;;;;;;;;5070904;28;20053;-65
2023/03/15 10:36:19;;;;;;;5.15;3.90;;;;;;;;;;5072289;28;20048;-67
2023/03/15 10:38:47;;;;;;;4.97;3.67;;;;;;;;;;5072480;28;20054;-66
2023/03/15 10:41:28;;;;;;;5.30;3.92;;;;;;;;;;5062614;28;20048;-67
2023/03/15 10:44:00;;;;;;;3.67;3.25;;;;;;;;;;4990409;28;20047;-67
2023/03/15 10:46:27;;;;;;;5.20;4.07;;;;;;;;;;4989762;28;20397;-65
2023/03/15 10:48:59;;;;;;;5.55;4.55;;;;;;;;;;4979066;28;20096;-63
2023/03/15 10:51:28;;;;;;;5.00;3.90;;;;;;;;;;4968504;28;20070;-64
2023/03/15 10:53:58;;;;;;;4.75;3.83;;;;;;;;;;4969946;28;20058;-64
2023/03/15 10:56:28;;;;;;;5.85;4.30;;;;;;;;;;4970145;28;20047;-65
2023/03/15 10:58:56;;;;;;;5.15;3.60;;;;;;;;;;4969172;28;20134;-65
2023/03/15 11:01:25;;;;;;;5.05;3.88;;;;;;;;;;4970618;28;20050;-65
2023/03/15 11:04:07;;;;;;;4.72;3.67;;;;;;;;;;4969648;28;20471;-65
2023/03/15 11:06:41;;;;;;;5.07;3.22;;;;;;;;;;4969995;28;20047;-64
2023/03/15 11:09:09;;;;;;;5.35;3.60;;;;;;;;;;4973701;28;20043;-64
2023/03/15 11:11:52;;;;;;;6.85;3.95;;;;;;;;;;4970166;28;20137;-65
2023/03/15 11:14:18;;;;;;;3.88;3.17;;;;;;;;;;4969512;28;20492;-65
2023/03/15 11:16:48;;;;;;;4.63;3.50;;;;;;;;;;4969915;28;20047;-65
2023/03/15 11:19:17;;;;;;;4.32;3.30;;;;;;;;;;4977503;28;20054;-64
2023/03/15 11:21:46;;;;;;;5.38;3.50;;;;;;;;;;4976869;28;20077;-65
2023/03/15 11:24:22;;;;;;;4.13;3.40;;;;;;;;;;4969395;28;20078;-65
2023/03/15 11:26:53;;;;;;;4.45;3.58;;;;;;;;;;4969547;28;20055;-65
2023/03/15 11:29:24;;;;;;;5.07;3.38;;;;;;;;;;4969542;28;20051;-64
2023/03/15 11:31:51;;;;;;;4.45;3.35;;;;;;;;;;4969173;28;20137;-64
2023/03/15 11:34:25;;;;;;;4.85;3.50;;;;;;;;;;4969330;28;20057;-65
2023/03/15 11:36:56;;;;;;;4.28;3.70;;;;;;;;;;4969312;28;20047;-65
2023/03/15 11:39:29;;;;;;;2.88;2.53;;;;;;;;;;4969134;28;20057;-64
2023/03/15 11:42:05;;;;;;;5.43;2.70;;;;;;;;;;4969929;28;20047;-64
2023/03/15 11:44:38;;;;;;;3.97;2.72;;;;;;;;;;4968977;28;20051;-64
2023/03/15 11:47:12;;;;;;;4.50;2.95;;;;;;;;;;4969673;28;20055;-65
2023/03/15 11:49:45;;;;;;;3.20;2.80;;;;;;;;;;4970027;28;20129;-65
2023/03/15 11:52:13;;;;;;;3.67;3.38;;;;;;;;;;4969663;28;20057;-65
2023/03/15 11:54:39;;;;;;;5.13;3.30;;;;;;;;;;4968741;28;20057;-65
2023/03/15 11:57:39;;;;;;;4.22;3.25;;;;;;;;;;4969112;28;20505;-65
2023/03/15 12:00:26;;;;;;;5.13;4.32;;;;;;;;;;4969056;28;20526;-65
2023/03/15 12:02:55;;;;;;;10.18;6.53;;;;;;;;;;4969148;28;20496;-64
2023/03/15 12:05:44;;;;;;;7.25;5.70;;;;;;;;;;4968678;28;20047;-64
2023/03/15 12:08:23;;;;;;;5.32;3.53;;;;;;;;;;4969455;28;20073;-63
2023/03/15 12:10:51;;;;;;;4.15;3.50;;;;;;;;;;4968970;28;20050;-65
2023/03/15 12:13:26;;;;;;;2.97;2.40;;;;;;;;;;4969290;28;20047;-64
2023/03/15 12:15:53;;;;;;;4.60;2.88;;;;;;;;;;4968769;28;20047;-64
2023/03/15 12:18:27;;;;;;;2.13;1.88;;;;;;;;;;4968222;28;20180;-64
2023/03/15 12:21:07;;;;;;;2.33;1.80;;;;;;;;;;4983447;28;20074;-64
2023/03/15 12:23:39;;;;;;;3.60;2.40;;;;;;;;;;4968773;28;20051;-64
2023/03/15 12:26:10;;;;;;;2.58;2.20;;;;;;;;;;4968971;28;20051;-64
2023/03/15 12:28:42;;;;;;;2.47;1.40;;;;;;;;;;4968186;28;20047;-65
2023/03/15 12:31:12;;;;;;;3.55;1.70;;;;;;;;;;4971741;28;20392;-65
2023/03/15 12:33:48;;;;;;;1.70;1.30;;;;;;;;;;4988197;28;20499;-65
2023/03/15 12:36:34;;;;;;;1.63;1.40;;;;;;;;;;4988650;28;20056;-64
2023/03/15 12:39:19;;;;;;;2.97;1.80;;;;;;;;;;4987855;28;20060;-64
2023/03/15 12:41:48;;;;;;;1.73;1.52;;;;;;;;;;4978254;28;20074;-64
2023/03/15 12:44:36;;;;;;;1.67;1.58;;;;;;;;;;4968312;28;20496;-64
2023/03/15 12:47:04;;;;;;;1.70;1.50;;;;;;;;;;4968633;28;20297;-64
2023/03/15 12:49:34;;;;;;;1.70;1.60;;;;;;;;;;4982796;28;20055;-64
2023/03/15 12:52:03;;;;;;;2.60;1.70;;;;;;;;;;4988365;28;20073;-64
2023/03/15 12:54:33;;;;;;;1.65;1.50;;;;;;;;;;4987226;28;20133;-65
2023/03/15 12:57:03;;;;;;;1.70;1.60;;;;;;;;;;4988327;28;20056;-64
2023/03/15 12:59:40;;;;;;;1.60;1.42;;;;;;;;;;4980176;28;20142;-64
2023/03/15 13:02:35;;;;;;;1.67;1.55;;;;;;;;;;4967992;28;20046;-63
2023/03/15 13:05:13;;;;;;;2.63;1.63;;;;;;;;;;5001780;28;20054;-64
2023/03/15 13:07:55;;;;;;;2.67;2.03;;;;;;;;;;4968338;28;20043;-64
2023/03/15 13:10:55;;;;;;;2.33;1.40;;;;;;;;;;4968778;28;20043;-64
2023/03/15 13:13:31;;;;;;;3.97;1.40;;;;;;;;;;4968657;28;20476;-64
2023/03/15 13:16:20;;;;;;;1.92;1.40;;;;;;;;;;4967928;28;20196;-64
2023/03/15 13:18:57;;;;;;;1.23;1.13;;;;;;;;;;4979951;28;20046;-65
2023/03/15 13:21:28;;;;;;;2.38;1.40;;;;;;;;;;4989766;28;20125;-64
2023/03/15 13:23:58;;;;;;;2.00;1.80;;;;;;;;;;4978830;28;20129;-65
2023/03/15 13:26:36;;;;;;;3.38;1.92;;;;;;;;;;4972329;28;20069;-65
2023/03/15 13:29:13;;;;;;;1.35;1.20;;;;;;;;;;4969480;28;20135;-64
2023/03/15 13:31:41;;;;;;;1.90;1.70;;;;;;;;;;4987229;28;20057;-64
2023/03/15 13:34:13;;;;;;;4.20;2.75;;;;;;;;;;4984627;28;20059;-65
2023/03/15 13:36:42;;;;;;;2.67;1.58;;;;;;;;;;4977782;28;20049;-64
2023/03/15 13:39:17;;;;;;;1.60;1.23;;;;;;;;;;4990476;28;20423;-65
2023/03/15 13:41:44;;;;;;;1.63;1.40;;;;;;;;;;4991098;28;20046;-65
2023/03/15 13:44:18;;;;;;;1.55;1.45;;;;;;;;;;4990980;28;20129;-64
2023/03/15 13:46:47;;;;;;;1.75;1.65;;;;;;;;;;4990732;28;20411;-65
2023/03/15 13:49:14;;;;;;;2.05;1.40;;;;;;;;;;4990660;28;20046;-65
2023/03/15 13:51:41;;;;;;;1.88;1.40;;;;;;;;;;4990533;28;20054;-64
2023/03/15 13:54:14;;;;;;;2.38;1.30;;;;;;;;;;4990428;28;20046;-65
2023/03/15 13:56:55;;;;;;;1.48;1.38;;;;;;;;;;4990684;28;20183;-64
2023/03/15 13:59:23;;;;;;;1.40;1.30;;;;;;;;;;4990964;28;20046;-65
2023/03/15 14:01:53;;;;;;;2.00;1.40;;;;;;;;;;4990123;28;20054;-65
2023/03/15 14:04:22;;;;;;;1.38;1.27;;;;;;;;;;4991084;28;20058;-65
2023/03/15 14:06:49;;;;;;;3.85;1.60;;;;;;;;;;4990176;28;20050;-65
2023/03/15 14:09:20;;;;;;;3.65;2.28;;;;;;;;;;4990494;28;20073;-65
2023/03/15 14:12:01;;;;;;;1.83;1.20;;;;;;;;;;4990612;28;20141;-64
2023/03/15 14:14:29;;;;;;;2.00;1.33;;;;;;;;;;4989818;28;20046;-65
2023/03/15 14:16:58;;;;;;;1.98;1.23;;;;;;;;;;4970625;28;20051;-65
2023/03/15 14:19:26;;;;;;;1.42;1.33;;;;;;;;;;4970979;28;20061;-64
2023/03/15 14:21:56;;;;;;;1.85;1.20;;;;;;;;;;4970731;28;20051;-65
2023/03/15 14:24:28;;;;;;;1.02;1.02;;;;;;;;;;4971272;28;20061;-63
2023/03/15 14:26:58;;;;;;;2.78;1.42;;;;;;;;;;4970552;28;20053;-63
2023/03/15 14:29:28;;;;;;;2.15;1.20;;;;;;;;;;4970105;28;20134;-65
2023/03/15 14:32:01;;;;;;;1.33;1.02;;;;;;;;;;4970880;28;20082;-63
2023/03/15 14:34:33;;;;;;;1.30;1.20;;;;;;;;;;4980822;28;20054;-64
2023/03/15 14:37:03;;;;;;;1.92;1.83;;;;;;;;;;4990297;28;20096;-65
2023/03/15 14:39:32;;;;;;;2.85;1.48;;;;;;;;;;4989794;28;20150;-65
2023/03/15 14:41:58;;;;;;;2.05;1.38;;;;;;;;;;4990103;28;20057;-65
2023/03/15 14:44:25;;;;;;;1.65;1.17;;;;;;;;;;4989993;28;20145;-64
2023/03/15 14:46:52;;;;;;;1.73;1.00;;;;;;;;;;4990046;28;20051;-65
2023/03/15 14:49:24;;;;;;;2.95;1.98;;;;;;;;;;4989894;28;20046;-65
2023/03/15 14:51:55;;;;;;;5.22;3.50;;;;;;;;;;4990651;28;20079;-65